sensor_id;sensor_type;location;lat;lon;timestamp;temperature;humidity
22416;DHT22;12204;50.600;4.608;2023-07-29T00:02:32;24.90;84.00
22416;DHT22;12204;50.600;4.608;2023-07-29T00:07:38;25.00;84.10
22416;DHT22;12204;50.600;4.608;2023-07-29T00:12:41;25.00;84.10
22416;DHT22;12204;50.600;4.608;2023-07-29T00:17:45;25.00;84.60
22416;DHT22;12204;50.600;4.608;2023-07-29T00:22:50;25.00;84.10
22416;DHT22;12204;50.600;4.608;2023-07-29T00:27:56;25.00;84.20
22416;DHT22;12204;50.600;4.608;2023-07-29T00:33:02;25.00;84.80
22416;DHT22;12204;50.600;4.608;2023-07-29T00:38:07;25.00;83.60
22416;DHT22;12204;50.600;4.608;2023-07-29T00:43:11;25.00;84.10
22416;DHT22;12204;50.600;4.608;2023-07-29T00:48:14;25.00;83.90
22416;DHT22;12204;50.600;4.608;2023-07-29T00:53:20;25.00;83.90
22416;DHT22;12204;50.600;4.608;2023-07-29T00:58:24;25.10;84.00
22416;DHT22;12204;50.600;4.608;2023-07-29T01:03:28;25.10;83.70
22416;DHT22;12204;50.600;4.608;2023-07-29T01:08:38;25.10;84.00
22416;DHT22;12204;50.600;4.608;2023-07-29T01:13:54;25.10;83.80
22416;DHT22;12204;50.600;4.608;2023-07-29T01:19:06;25.10;84.10
22416;DHT22;12204;50.600;4.608;2023-07-29T01:24:11;25.10;83.50
22416;DHT22;12204;50.600;4.608;2023-07-29T01:29:15;25.00;83.90
22416;DHT22;12204;50.600;4.608;2023-07-29T01:34:23;25.00;83.90
22416;DHT22;12204;50.600;4.608;2023-07-29T01:39:36;25.00;83.80
22416;DHT22;12204;50.600;4.608;2023-07-29T01:44:40;25.00;83.90
22416;DHT22;12204;50.600;4.608;2023-07-29T01:49:44;25.00;84.00
22416;DHT22;12204;50.600;4.608;2023-07-29T01:54:50;25.00;84.20
22416;DHT22;12204;50.600;4.608;2023-07-29T01:59:54;25.00;84.20
22416;DHT22;12204;50.600;4.608;2023-07-29T02:04:58;25.00;84.00
22416;DHT22;12204;50.600;4.608;2023-07-29T02:10:03;25.00;84.00
22416;DHT22;12204;50.600;4.608;2023-07-29T02:15:08;25.00;84.10
22416;DHT22;12204;50.600;4.608;2023-07-29T02:20:13;25.00;83.80
22416;DHT22;12204;50.600;4.608;2023-07-29T02:25:19;25.00;84.10
22416;DHT22;12204;50.600;4.608;2023-07-29T02:30:23;25.00;84.30
22416;DHT22;12204;50.600;4.608;2023-07-29T02:35:30;25.00;84.50
22416;DHT22;12204;50.600;4.608;2023-07-29T02:40:35;25.00;84.20
22416;DHT22;12204;50.600;4.608;2023-07-29T02:45:38;25.10;84.00
22416;DHT22;12204;50.600;4.608;2023-07-29T02:50:42;25.10;83.80
22416;DHT22;12204;50.600;4.608;2023-07-29T02:55:47;25.10;83.80
22416;DHT22;12204;50.600;4.608;2023-07-29T03:00:51;25.10;84.00
22416;DHT22;12204;50.600;4.608;2023-07-29T03:05:58;25.10;84.00
22416;DHT22;12204;50.600;4.608;2023-07-29T03:11:07;25.10;84.00
22416;DHT22;12204;50.600;4.608;2023-07-29T03:16:14;25.10;84.00
22416;DHT22;12204;50.600;4.608;2023-07-29T03:21:25;25.10;83.90
22416;DHT22;12204;50.600;4.608;2023-07-29T03:26:30;25.10;83.70
22416;DHT22;12204;50.600;4.608;2023-07-29T03:31:34;25.10;83.60
22416;DHT22;12204;50.600;4.608;2023-07-29T03:36:37;25.10;83.50
22416;DHT22;12204;50.600;4.608;2023-07-29T03:41:42;25.10;83.90
22416;DHT22;12204;50.600;4.608;2023-07-29T03:46:46;25.10;84.00
22416;DHT22;12204;50.600;4.608;2023-07-29T03:51:50;25.00;83.90
22416;DHT22;12204;50.600;4.608;2023-07-29T03:56:55;25.00;83.70
22416;DHT22;12204;50.600;4.608;2023-07-29T04:01:58;25.00;83.60
22416;DHT22;12204;50.600;4.608;2023-07-29T04:07:35;25.00;83.50
22416;DHT22;12204;50.600;4.608;2023-07-29T04:12:41;25.00;83.40
22416;DHT22;12204;50.600;4.608;2023-07-29T04:17:44;25.00;83.40
22416;DHT22;12204;50.600;4.608;2023-07-29T04:22:48;25.00;83.50
22416;DHT22;12204;50.600;4.608;2023-07-29T04:27:53;25.00;83.40
22416;DHT22;12204;50.600;4.608;2023-07-29T04:32:59;25.00;83.30
22416;DHT22;12204;50.600;4.608;2023-07-29T04:38:03;25.00;83.30
22416;DHT22;12204;50.600;4.608;2023-07-29T04:43:08;25.00;83.30
22416;DHT22;12204;50.600;4.608;2023-07-29T04:48:11;25.00;83.20
22416;DHT22;12204;50.600;4.608;2023-07-29T04:53:15;25.00;83.20
22416;DHT22;12204;50.600;4.608;2023-07-29T04:58:20;25.00;83.30
22416;DHT22;12204;50.600;4.608;2023-07-29T05:03:24;25.00;83.30
22416;DHT22;12204;50.600;4.608;2023-07-29T05:08:28;25.00;83.10
22416;DHT22;12204;50.600;4.608;2023-07-29T05:13:33;25.10;82.80
22416;DHT22;12204;50.600;4.608;2023-07-29T05:18:37;25.00;82.80
22416;DHT22;12204;50.600;4.608;2023-07-29T05:23:41;25.10;82.60
22416;DHT22;12204;50.600;4.608;2023-07-29T05:28:46;25.10;82.40
22416;DHT22;12204;50.600;4.608;2023-07-29T05:33:50;25.10;82.30
22416;DHT22;12204;50.600;4.608;2023-07-29T05:38:53;25.10;82.70
22416;DHT22;12204;50.600;4.608;2023-07-29T05:43:58;25.10;82.70
22416;DHT22;12204;50.600;4.608;2023-07-29T05:49:02;25.10;82.60
22416;DHT22;12204;50.600;4.608;2023-07-29T05:54:07;25.00;82.70
22416;DHT22;12204;50.600;4.608;2023-07-29T05:59:13;25.00;82.60
22416;DHT22;12204;50.600;4.608;2023-07-29T06:04:17;25.00;82.70
22416;DHT22;12204;50.600;4.608;2023-07-29T06:09:35;25.00;82.70
22416;DHT22;12204;50.600;4.608;2023-07-29T06:14:40;25.10;82.60
22416;DHT22;12204;50.600;4.608;2023-07-29T06:19:44;25.10;82.30
22416;DHT22;12204;50.600;4.608;2023-07-29T06:24:47;25.00;82.70
22416;DHT22;12204;50.600;4.608;2023-07-29T06:29:52;25.00;82.80
22416;DHT22;12204;50.600;4.608;2023-07-29T06:34:56;25.00;82.70
22416;DHT22;12204;50.600;4.608;2023-07-29T06:40:00;25.10;82.50
22416;DHT22;12204;50.600;4.608;2023-07-29T06:45:07;25.00;82.90
22416;DHT22;12204;50.600;4.608;2023-07-29T06:50:12;25.00;83.10
22416;DHT22;12204;50.600;4.608;2023-07-29T06:55:15;25.00;82.80
22416;DHT22;12204;50.600;4.608;2023-07-29T07:00:20;25.00;82.80
22416;DHT22;12204;50.600;4.608;2023-07-29T07:05:24;25.00;82.40
22416;DHT22;12204;50.600;4.608;2023-07-29T07:10:28;25.00;82.90
22416;DHT22;12204;50.600;4.608;2023-07-29T07:15:33;25.10;82.70
22416;DHT22;12204;50.600;4.608;2023-07-29T07:20:37;25.10;81.90
22416;DHT22;12204;50.600;4.608;2023-07-29T07:25:41;25.10;82.00
22416;DHT22;12204;50.600;4.608;2023-07-29T07:30:46;25.10;82.20
22416;DHT22;12204;50.600;4.608;2023-07-29T07:35:50;25.10;82.70
22416;DHT22;12204;50.600;4.608;2023-07-29T07:40:54;25.10;81.80
22416;DHT22;12204;50.600;4.608;2023-07-29T07:46:01;25.00;78.60
22416;DHT22;12204;50.600;4.608;2023-07-29T07:51:10;24.90;75.60
22416;DHT22;12204;50.600;4.608;2023-07-29T07:56:15;24.80;74.70
22416;DHT22;12204;50.600;4.608;2023-07-29T08:01:19;24.80;74.20
22416;DHT22;12204;50.600;4.608;2023-07-29T08:06:23;24.60;72.30
22416;DHT22;12204;50.600;4.608;2023-07-29T08:11:29;24.30;70.50
22416;DHT22;12204;50.600;4.608;2023-07-29T08:16:34;24.20;72.10
22416;DHT22;12204;50.600;4.608;2023-07-29T08:21:38;24.20;71.10
22416;DHT22;12204;50.600;4.608;2023-07-29T08:26:41;24.10;71.00
22416;DHT22;12204;50.600;4.608;2023-07-29T08:31:46;24.20;71.00
22416;DHT22;12204;50.600;4.608;2023-07-29T08:36:56;24.20;72.30
22416;DHT22;12204;50.600;4.608;2023-07-29T08:42:02;24.40;71.70
22416;DHT22;12204;50.600;4.608;2023-07-29T08:47:09;24.60;73.10
22416;DHT22;12204;50.600;4.608;2023-07-29T08:52:14;24.70;74.60
22416;DHT22;12204;50.600;4.608;2023-07-29T08:57:20;24.80;74.20
22416;DHT22;12204;50.600;4.608;2023-07-29T09:02:25;24.80;72.40
22416;DHT22;12204;50.600;4.608;2023-07-29T09:07:29;24.70;72.10
22416;DHT22;12204;50.600;4.608;2023-07-29T09:12:33;24.70;71.80
22416;DHT22;12204;50.600;4.608;2023-07-29T09:17:40;24.80;72.40
22416;DHT22;12204;50.600;4.608;2023-07-29T09:22:44;24.90;71.80
22416;DHT22;12204;50.600;4.608;2023-07-29T09:27:48;25.00;71.90
22416;DHT22;12204;50.600;4.608;2023-07-29T09:32:55;25.00;70.40
22416;DHT22;12204;50.600;4.608;2023-07-29T09:37:59;25.00;70.00
22416;DHT22;12204;50.600;4.608;2023-07-29T09:43:04;25.10;69.80
22416;DHT22;12204;50.600;4.608;2023-07-29T09:48:10;25.10;69.90
22416;DHT22;12204;50.600;4.608;2023-07-29T09:53:14;25.10;69.60
22416;DHT22;12204;50.600;4.608;2023-07-29T09:58:26;25.00;69.50
22416;DHT22;12204;50.600;4.608;2023-07-29T10:03:32;25.00;69.50
22416;DHT22;12204;50.600;4.608;2023-07-29T10:08:37;25.00;69.80
22416;DHT22;12204;50.600;4.608;2023-07-29T10:13:43;25.00;69.90
22416;DHT22;12204;50.600;4.608;2023-07-29T10:19:20;25.00;70.50
22416;DHT22;12204;50.600;4.608;2023-07-29T10:24:26;25.00;71.10
22416;DHT22;12204;50.600;4.608;2023-07-29T10:29:38;25.00;71.50
22416;DHT22;12204;50.600;4.608;2023-07-29T10:34:44;25.00;72.10
22416;DHT22;12204;50.600;4.608;2023-07-29T10:39:54;25.00;71.50
22416;DHT22;12204;50.600;4.608;2023-07-29T10:44:58;25.00;72.60
22416;DHT22;12204;50.600;4.608;2023-07-29T10:50:17;25.00;73.00
22416;DHT22;12204;50.600;4.608;2023-07-29T10:55:29;25.10;73.80
22416;DHT22;12204;50.600;4.608;2023-07-29T11:00:36;25.10;71.20
22416;DHT22;12204;50.600;4.608;2023-07-29T11:05:46;25.00;70.20
22416;DHT22;12204;50.600;4.608;2023-07-29T11:11:03;25.00;69.60
22416;DHT22;12204;50.600;4.608;2023-07-29T11:16:10;25.00;68.90
22416;DHT22;12204;50.600;4.608;2023-07-29T11:21:20;25.00;69.30
22416;DHT22;12204;50.600;4.608;2023-07-29T11:26:25;24.90;69.70
22416;DHT22;12204;50.600;4.608;2023-07-29T11:31:39;24.90;70.00
22416;DHT22;12204;50.600;4.608;2023-07-29T11:36:45;24.90;70.20
22416;DHT22;12204;50.600;4.608;2023-07-29T11:41:49;24.90;70.60
22416;DHT22;12204;50.600;4.608;2023-07-29T11:46:53;24.90;70.90
22416;DHT22;12204;50.600;4.608;2023-07-29T11:51:58;24.90;70.30
22416;DHT22;12204;50.600;4.608;2023-07-29T11:57:03;24.80;69.10
22416;DHT22;12204;50.600;4.608;2023-07-29T12:02:16;24.80;68.90
22416;DHT22;12204;50.600;4.608;2023-07-29T12:07:22;24.80;69.10
22416;DHT22;12204;50.600;4.608;2023-07-29T12:12:25;24.80;68.90
22416;DHT22;12204;50.600;4.608;2023-07-29T12:17:29;24.80;69.30
22416;DHT22;12204;50.600;4.608;2023-07-29T12:22:34;24.80;69.60
22416;DHT22;12204;50.600;4.608;2023-07-29T12:27:37;24.80;69.60
22416;DHT22;12204;50.600;4.608;2023-07-29T12:32:44;24.80;69.50
22416;DHT22;12204;50.600;4.608;2023-07-29T12:37:59;24.80;69.60
22416;DHT22;12204;50.600;4.608;2023-07-29T12:43:03;24.70;70.90
22416;DHT22;12204;50.600;4.608;2023-07-29T12:48:07;24.70;71.80
22416;DHT22;12204;50.600;4.608;2023-07-29T12:53:12;24.70;72.40
22416;DHT22;12204;50.600;4.608;2023-07-29T12:58:15;24.70;72.80
22416;DHT22;12204;50.600;4.608;2023-07-29T13:03:19;24.70;73.00
22416;DHT22;12204;50.600;4.608;2023-07-29T13:08:24;24.80;73.60
22416;DHT22;12204;50.600;4.608;2023-07-29T13:13:28;24.80;73.70
22416;DHT22;12204;50.600;4.608;2023-07-29T13:18:32;24.80;73.90
22416;DHT22;12204;50.600;4.608;2023-07-29T13:23:37;24.80;74.00
22416;DHT22;12204;50.600;4.608;2023-07-29T13:28:42;24.80;74.00
22416;DHT22;12204;50.600;4.608;2023-07-29T13:33:45;24.90;73.90
22416;DHT22;12204;50.600;4.608;2023-07-29T13:38:50;24.80;74.00
22416;DHT22;12204;50.600;4.608;2023-07-29T13:43:54;24.90;74.30
22416;DHT22;12204;50.600;4.608;2023-07-29T13:48:57;24.90;73.90
22416;DHT22;12204;50.600;4.608;2023-07-29T13:54:02;25.00;73.70
22416;DHT22;12204;50.600;4.608;2023-07-29T13:59:05;25.00;73.50
22416;DHT22;12204;50.600;4.608;2023-07-29T14:04:09;25.00;73.40
22416;DHT22;12204;50.600;4.608;2023-07-29T14:09:14;25.00;73.00
22416;DHT22;12204;50.600;4.608;2023-07-29T14:14:17;25.00;72.80
22416;DHT22;12204;50.600;4.608;2023-07-29T14:19:23;25.10;72.70
22416;DHT22;12204;50.600;4.608;2023-07-29T14:24:29;25.10;72.40
22416;DHT22;12204;50.600;4.608;2023-07-29T14:29:33;25.10;72.20
22416;DHT22;12204;50.600;4.608;2023-07-29T14:34:37;25.10;72.20
22416;DHT22;12204;50.600;4.608;2023-07-29T14:39:41;25.10;72.00
22416;DHT22;12204;50.600;4.608;2023-07-29T14:44:45;25.10;71.70
22416;DHT22;12204;50.600;4.608;2023-07-29T14:49:48;25.10;71.00
22416;DHT22;12204;50.600;4.608;2023-07-29T14:54:53;25.10;71.10
22416;DHT22;12204;50.600;4.608;2023-07-29T14:59:57;25.10;72.00
22416;DHT22;12204;50.600;4.608;2023-07-29T15:05:00;25.20;71.30
22416;DHT22;12204;50.600;4.608;2023-07-29T15:10:06;25.20;71.10
22416;DHT22;12204;50.600;4.608;2023-07-29T15:15:11;25.20;70.90
22416;DHT22;12204;50.600;4.608;2023-07-29T15:20:15;25.20;71.10
22416;DHT22;12204;50.600;4.608;2023-07-29T15:25:20;25.20;70.90
22416;DHT22;12204;50.600;4.608;2023-07-29T15:30:23;25.20;70.90
22416;DHT22;12204;50.600;4.608;2023-07-29T15:35:26;25.20;70.90
22416;DHT22;12204;50.600;4.608;2023-07-29T15:40:32;25.10;71.10
22416;DHT22;12204;50.600;4.608;2023-07-29T15:45:57;25.20;71.20
22416;DHT22;12204;50.600;4.608;2023-07-29T15:51:53;25.30;71.50
22416;DHT22;12204;50.600;4.608;2023-07-29T15:56:59;25.30;71.50
22416;DHT22;12204;50.600;4.608;2023-07-29T16:02:04;25.40;71.40
22416;DHT22;12204;50.600;4.608;2023-07-29T16:07:10;25.40;71.10
22416;DHT22;12204;50.600;4.608;2023-07-29T16:12:16;25.40;71.00
22416;DHT22;12204;50.600;4.608;2023-07-29T16:17:20;25.50;70.70
22416;DHT22;12204;50.600;4.608;2023-07-29T16:22:24;25.40;71.40
22416;DHT22;12204;50.600;4.608;2023-07-29T16:27:30;25.50;71.80
22416;DHT22;12204;50.600;4.608;2023-07-29T16:32:34;25.50;71.20
22416;DHT22;12204;50.600;4.608;2023-07-29T16:37:38;25.50;70.60
22416;DHT22;12204;50.600;4.608;2023-07-29T16:42:43;25.60;70.60
22416;DHT22;12204;50.600;4.608;2023-07-29T16:47:47;25.60;70.20
22416;DHT22;12204;50.600;4.608;2023-07-29T16:52:50;25.60;70.50
22416;DHT22;12204;50.600;4.608;2023-07-29T16:57:57;25.60;70.20
22416;DHT22;12204;50.600;4.608;2023-07-29T17:03:01;25.50;69.90
22416;DHT22;12204;50.600;4.608;2023-07-29T17:08:04;25.50;70.00
22416;DHT22;12204;50.600;4.608;2023-07-29T17:13:10;25.50;70.00
22416;DHT22;12204;50.600;4.608;2023-07-29T17:18:26;25.50;70.80
22416;DHT22;12204;50.600;4.608;2023-07-29T17:23:29;25.40;70.60
22416;DHT22;12204;50.600;4.608;2023-07-29T17:28:35;25.40;70.10
22416;DHT22;12204;50.600;4.608;2023-07-29T17:33:38;25.40;69.90
22416;DHT22;12204;50.600;4.608;2023-07-29T17:39:30;25.30;70.20
22416;DHT22;12204;50.600;4.608;2023-07-29T17:51:47;25.40;71.70
22416;DHT22;12204;50.600;4.608;2023-07-29T17:56:52;25.40;71.80
22416;DHT22;12204;50.600;4.608;2023-07-29T18:01:57;25.40;71.80
22416;DHT22;12204;50.600;4.608;2023-07-29T18:07:19;25.40;71.60
22416;DHT22;12204;50.600;4.608;2023-07-29T18:12:23;25.40;71.30
22416;DHT22;12204;50.600;4.608;2023-07-29T18:17:32;25.40;71.20
22416;DHT22;12204;50.600;4.608;2023-07-29T18:22:36;25.40;71.00
22416;DHT22;12204;50.600;4.608;2023-07-29T18:28:07;25.40;70.70
22416;DHT22;12204;50.600;4.608;2023-07-29T18:33:34;25.40;70.60
22416;DHT22;12204;50.600;4.608;2023-07-29T18:38:41;25.40;69.90
22416;DHT22;12204;50.600;4.608;2023-07-29T18:44:45;25.40;69.50
22416;DHT22;12204;50.600;4.608;2023-07-29T18:49:50;25.40;69.90
22416;DHT22;12204;50.600;4.608;2023-07-29T18:54:54;25.40;70.30
22416;DHT22;12204;50.600;4.608;2023-07-29T18:59:59;25.40;70.70
22416;DHT22;12204;50.600;4.608;2023-07-29T19:05:36;25.40;70.70
22416;DHT22;12204;50.600;4.608;2023-07-29T19:11:07;25.40;70.70
22416;DHT22;12204;50.600;4.608;2023-07-29T19:16:12;25.40;70.60
22416;DHT22;12204;50.600;4.608;2023-07-29T19:21:23;25.40;70.50
22416;DHT22;12204;50.600;4.608;2023-07-29T19:26:34;25.40;70.20
22416;DHT22;12204;50.600;4.608;2023-07-29T19:31:38;25.50;70.20
22416;DHT22;12204;50.600;4.608;2023-07-29T19:36:45;25.50;70.20
22416;DHT22;12204;50.600;4.608;2023-07-29T19:41:48;25.50;70.20
22416;DHT22;12204;50.600;4.608;2023-07-29T19:46:52;25.50;70.00
22416;DHT22;12204;50.600;4.608;2023-07-29T19:51:58;25.50;70.10
22416;DHT22;12204;50.600;4.608;2023-07-29T19:57:30;25.50;70.10
22416;DHT22;12204;50.600;4.608;2023-07-29T20:02:54;25.50;70.20
22416;DHT22;12204;50.600;4.608;2023-07-29T20:07:59;25.50;70.20
22416;DHT22;12204;50.600;4.608;2023-07-29T20:13:32;25.50;70.30
22416;DHT22;12204;50.600;4.608;2023-07-29T20:18:36;25.40;70.40
22416;DHT22;12204;50.600;4.608;2023-07-29T20:23:45;25.50;70.60
22416;DHT22;12204;50.600;4.608;2023-07-29T20:28:50;25.40;70.60
22416;DHT22;12204;50.600;4.608;2023-07-29T20:33:53;25.40;70.80
22416;DHT22;12204;50.600;4.608;2023-07-29T20:38:58;25.40;71.10
22416;DHT22;12204;50.600;4.608;2023-07-29T20:44:02;25.40;71.20
22416;DHT22;12204;50.600;4.608;2023-07-29T20:49:07;25.40;71.30
22416;DHT22;12204;50.600;4.608;2023-07-29T20:54:13;25.40;71.60
22416;DHT22;12204;50.600;4.608;2023-07-29T20:59:17;25.40;71.80
22416;DHT22;12204;50.600;4.608;2023-07-29T21:04:20;25.40;71.90
22416;DHT22;12204;50.600;4.608;2023-07-29T21:09:25;25.50;71.90
22416;DHT22;12204;50.600;4.608;2023-07-29T21:14:29;25.50;72.80
22416;DHT22;12204;50.600;4.608;2023-07-29T21:19:32;25.50;72.20
22416;DHT22;12204;50.600;4.608;2023-07-29T21:24:37;25.50;72.30
22416;DHT22;12204;50.600;4.608;2023-07-29T21:29:40;25.50;72.20
22416;DHT22;12204;50.600;4.608;2023-07-29T21:34:44;25.50;72.20
22416;DHT22;12204;50.600;4.608;2023-07-29T21:39:48;25.50;72.20
22416;DHT22;12204;50.600;4.608;2023-07-29T21:44:52;25.50;72.40
22416;DHT22;12204;50.600;4.608;2023-07-29T21:49:55;25.50;72.90
22416;DHT22;12204;50.600;4.608;2023-07-29T21:55:00;25.50;73.80
22416;DHT22;12204;50.600;4.608;2023-07-29T22:00:05;25.40;73.90
22416;DHT22;12204;50.600;4.608;2023-07-29T22:05:10;25.40;74.20
22416;DHT22;12204;50.600;4.608;2023-07-29T22:10:15;25.40;74.60
22416;DHT22;12204;50.600;4.608;2023-07-29T22:15:19;25.40;74.80
22416;DHT22;12204;50.600;4.608;2023-07-29T22:20:22;25.40;74.80
22416;DHT22;12204;50.600;4.608;2023-07-29T22:25:28;25.40;75.00
22416;DHT22;12204;50.600;4.608;2023-07-29T22:30:35;25.40;75.10
22416;DHT22;12204;50.600;4.608;2023-07-29T22:35:39;25.40;75.90
22416;DHT22;12204;50.600;4.608;2023-07-29T22:40:50;25.50;75.30
22416;DHT22;12204;50.600;4.608;2023-07-29T22:45:57;25.40;75.30
22416;DHT22;12204;50.600;4.608;2023-07-29T22:51:03;25.40;76.10
22416;DHT22;12204;50.600;4.608;2023-07-29T22:56:08;25.40;75.50
22416;DHT22;12204;50.600;4.608;2023-07-29T23:01:11;25.50;75.70
22416;DHT22;12204;50.600;4.608;2023-07-29T23:06:15;25.40;75.50
22416;DHT22;12204;50.600;4.608;2023-07-29T23:11:20;25.50;75.50
22416;DHT22;12204;50.600;4.608;2023-07-29T23:16:23;25.50;75.40
22416;DHT22;12204;50.600;4.608;2023-07-29T23:21:27;25.40;75.10
22416;DHT22;12204;50.600;4.608;2023-07-29T23:26:31;25.40;75.40
22416;DHT22;12204;50.600;4.608;2023-07-29T23:31:35;25.50;75.20
22416;DHT22;12204;50.600;4.608;2023-07-29T23:36:39;25.40;75.20
22416;DHT22;12204;50.600;4.608;2023-07-29T23:41:44;25.40;75.10
22416;DHT22;12204;50.600;4.608;2023-07-29T23:46:47;25.50;75.00
22416;DHT22;12204;50.600;4.608;2023-07-29T23:51:51;25.40;74.80
22416;DHT22;12204;50.600;4.608;2023-07-29T23:56:56;25.50;75.00
